createdAt,value
2023-03-23T00:02:34.181Z,11.8
2023-03-23T00:22:34.203Z,11.7
2023-03-23T00:27:34.196Z,11.8
2023-03-23T00:52:34.231Z,11.9
2023-03-23T01:22:34.225Z,11.8
2023-03-23T01:27:34.225Z,11.7
2023-03-23T01:32:34.201Z,11.8
2023-03-23T01:42:34.218Z,11.9
2023-03-23T01:47:34.230Z,11.8
2023-03-23T01:52:34.218Z,11.9
2023-03-23T02:02:34.234Z,11.8
2023-03-23T02:07:34.232Z,11.9
2023-03-23T02:22:34.228Z,12.0
2023-03-23T02:37:34.239Z,12.1
2023-03-23T02:42:34.238Z,12.2
2023-03-23T03:17:34.226Z,12.3
2023-03-23T04:02:34.261Z,12.4
2023-03-23T04:07:34.427Z,12.3
2023-03-23T04:17:34.273Z,12.4
2023-03-23T04:47:34.288Z,12.3
2023-03-23T04:52:34.292Z,12.4
2023-03-23T04:57:34.271Z,12.3
2023-03-23T05:07:34.292Z,12.4
2023-03-23T05:22:34.295Z,12.3
2023-03-23T05:27:34.278Z,12.2
2023-03-23T05:37:34.294Z,12.3
2023-03-23T05:52:34.286Z,12.4
2023-03-23T05:57:34.290Z,12.3
2023-03-23T06:02:34.325Z,12.4
2023-03-23T06:17:34.290Z,12.3
2023-03-23T06:22:34.294Z,12.4
2023-03-23T06:27:34.301Z,12.5
2023-03-23T06:32:34.296Z,12.7
2023-03-23T06:47:34.328Z,12.6
2023-03-23T06:57:34.312Z,12.7
2023-03-23T07:02:34.316Z,12.6
2023-03-23T07:07:34.325Z,12.7
2023-03-23T07:22:34.307Z,12.6
2023-03-23T07:32:34.341Z,12.8
2023-03-23T07:47:34.418Z,13.0
2023-03-23T07:52:34.334Z,12.8
2023-03-23T08:02:35.179Z,12.7
2023-03-23T08:07:34.328Z,12.6
2023-03-23T08:12:34.357Z,12.1
2023-03-23T08:17:34.351Z,12.2
2023-03-23T08:27:34.324Z,12.4
2023-03-23T08:37:34.350Z,12.6
2023-03-23T08:42:34.528Z,12.7
2023-03-23T08:47:34.343Z,12.6
2023-03-23T08:52:34.350Z,13.0
2023-03-23T08:57:34.353Z,12.9
2023-03-23T09:02:34.346Z,13.0
2023-03-23T09:07:34.334Z,12.7
2023-03-23T09:12:34.344Z,13.0
2023-03-23T09:17:34.363Z,12.9
2023-03-23T09:22:34.348Z,13.0
2023-03-23T09:27:34.361Z,13.3
2023-03-23T09:32:34.382Z,13.6
2023-03-23T09:37:34.389Z,13.7
2023-03-23T09:42:34.377Z,13.6
2023-03-23T09:47:34.377Z,13.9
2023-03-23T09:52:34.383Z,14.5
2023-03-23T09:57:34.359Z,14.8
2023-03-23T10:02:34.397Z,15.6
2023-03-23T10:07:34.374Z,17.5
2023-03-23T10:12:34.381Z,19.1
2023-03-23T10:17:34.465Z,19.8
2023-03-23T10:22:34.397Z,18.3
2023-03-23T10:27:34.390Z,19.2
2023-03-23T10:32:34.421Z,19.6
2023-03-23T10:37:34.413Z,18.8
2023-03-23T10:42:34.472Z,19.5
2023-03-23T10:47:34.472Z,17.7
2023-03-23T10:52:34.401Z,17.9
2023-03-23T10:57:34.368Z,19.3
2023-03-23T11:02:34.397Z,20.0
2023-03-23T11:07:34.407Z,20.4
2023-03-23T11:12:34.390Z,17.7
2023-03-23T11:17:34.395Z,19.2
2023-03-23T11:22:34.404Z,19.5
2023-03-23T11:27:34.401Z,20.7
2023-03-23T11:32:34.420Z,22.5
2023-03-23T11:37:34.387Z,21.2
2023-03-23T11:42:34.404Z,20.7
2023-03-23T11:47:34.428Z,19.5
2023-03-23T11:52:34.423Z,17.7
2023-03-23T11:57:34.400Z,17.1
2023-03-23T12:02:34.417Z,16.8
2023-03-23T12:07:34.419Z,16.3
2023-03-23T12:12:34.418Z,15.0
2023-03-23T12:17:34.413Z,15.6
2023-03-23T12:22:34.397Z,16.3
2023-03-23T12:27:34.415Z,15.6
2023-03-23T12:32:34.442Z,16.7
2023-03-23T12:37:34.416Z,18.6
2023-03-23T12:42:34.429Z,20.4
2023-03-23T12:47:34.434Z,20.0
2023-03-23T12:52:34.423Z,20.1
2023-03-23T12:57:34.431Z,18.8
2023-03-23T13:02:34.425Z,18.1
2023-03-23T13:07:34.442Z,17.6
2023-03-23T13:12:34.448Z,16.7
2023-03-23T13:17:34.440Z,14.0
2023-03-23T13:22:34.431Z,12.3
2023-03-23T13:27:34.426Z,12.5
2023-03-23T13:32:34.546Z,12.4
2023-03-23T13:37:35.548Z,12.5
2023-03-23T13:42:34.448Z,14.4
2023-03-23T13:47:34.431Z,14.2
2023-03-23T13:57:34.451Z,14.0
2023-03-23T14:02:34.464Z,14.3
2023-03-23T14:07:34.463Z,14.1
2023-03-23T14:12:34.474Z,13.9
2023-03-23T14:17:34.458Z,13.8
2023-03-23T14:22:34.483Z,14.0
2023-03-23T14:27:34.452Z,13.5
2023-03-23T14:32:34.496Z,13.7
2023-03-23T14:37:34.455Z,14.0
2023-03-23T14:42:34.452Z,16.6
2023-03-23T14:47:34.450Z,19.5
2023-03-23T14:52:34.480Z,21.3
2023-03-23T14:57:34.469Z,22.1
2023-03-23T15:02:34.487Z,22.3
2023-03-23T15:07:34.447Z,20.2
2023-03-23T15:12:34.477Z,22.5
2023-03-23T15:17:34.489Z,22.7
2023-03-23T15:22:34.467Z,22.8
2023-03-23T15:27:34.465Z,21.6
2023-03-23T15:32:35.497Z,18.1
2023-03-23T15:37:34.507Z,17.5
2023-03-23T15:42:34.474Z,20.6
2023-03-23T15:47:34.493Z,17.6
2023-03-23T15:52:34.481Z,18.6
2023-03-23T15:57:34.482Z,18.9
2023-03-23T16:02:34.584Z,19.6
2023-03-23T16:07:34.475Z,16.4
2023-03-23T16:12:34.473Z,16.6
2023-03-23T16:17:34.571Z,15.8
2023-03-23T16:22:34.504Z,15.7
2023-03-23T16:27:34.496Z,15.6
2023-03-23T16:37:34.504Z,16.2
2023-03-23T16:42:34.501Z,16.1
2023-03-23T16:47:34.562Z,15.1
2023-03-23T16:52:34.497Z,14.9
2023-03-23T16:57:34.525Z,14.8
2023-03-23T17:02:34.608Z,14.9
2023-03-23T17:07:34.508Z,15.0
2023-03-23T17:12:34.508Z,14.8
2023-03-23T17:17:34.567Z,14.7
2023-03-23T17:22:34.538Z,15.1
2023-03-23T17:27:34.523Z,15.0
2023-03-23T17:32:34.526Z,14.9
2023-03-23T17:37:34.559Z,14.7
2023-03-23T17:52:34.526Z,14.6
2023-03-23T17:57:34.515Z,14.4
2023-03-23T18:02:34.621Z,14.3
2023-03-23T18:07:34.532Z,14.0
2023-03-23T18:12:34.519Z,13.9
2023-03-23T18:17:34.560Z,14.1
2023-03-23T18:22:34.550Z,14.3
2023-03-23T18:27:34.546Z,14.2
2023-03-23T18:37:34.559Z,14.3
2023-03-23T18:42:34.568Z,14.1
2023-03-23T18:47:34.625Z,14.0
2023-03-23T19:07:34.565Z,14.1
2023-03-23T19:12:34.556Z,14.0
2023-03-23T19:17:34.573Z,13.9
2023-03-23T19:22:34.574Z,14.0
2023-03-23T19:27:47.417Z,14.1
2023-03-23T19:32:34.589Z,13.9
2023-03-23T19:37:34.940Z,13.8
2023-03-23T19:42:34.577Z,14.0
2023-03-23T19:52:35.297Z,13.9
2023-03-23T20:17:34.611Z,14.0
2023-03-23T20:22:34.593Z,13.9
2023-03-23T20:27:34.595Z,14.0
2023-03-23T20:32:34.649Z,13.8
2023-03-23T20:37:34.629Z,13.4
2023-03-23T20:42:34.602Z,13.1
2023-03-23T20:47:34.597Z,12.9
2023-03-23T20:57:34.595Z,12.7
2023-03-23T21:02:34.627Z,12.6
2023-03-23T21:07:34.614Z,12.7
2023-03-23T21:12:34.600Z,12.6
2023-03-23T21:22:34.610Z,12.4
2023-03-23T21:27:34.599Z,12.5
2023-03-23T21:32:34.615Z,12.4
2023-03-23T21:52:34.604Z,12.3
2023-03-23T22:12:34.606Z,12.5
2023-03-23T22:17:34.614Z,12.3
2023-03-23T22:22:34.610Z,12.4
2023-03-23T22:37:34.625Z,12.3
2023-03-23T22:47:34.647Z,12.2
2023-03-23T22:52:34.616Z,12.1
2023-03-23T23:07:34.635Z,12.0
2023-03-23T23:12:34.633Z,12.1
2023-03-23T23:17:35.009Z,12.0
2023-03-23T23:37:34.660Z,11.9
2023-03-23T23:52:34.658Z,12.1
2023-03-23T23:57:34.660Z,12.2
